createdAt,value
2019-04-07T00:09:23.957Z,35.1
2019-04-07T00:19:23.212Z,35
2019-04-07T00:29:22.852Z,35
2019-04-07T00:39:21.723Z,35
2019-04-07T00:49:20.796Z,34.9
2019-04-07T00:59:19.999Z,34.9
2019-04-07T01:09:19.848Z,34.9
2019-04-07T01:19:18.901Z,34.9
2019-04-07T01:29:18.361Z,34.9
2019-04-07T01:39:16.939Z,34.8
2019-04-07T01:49:16.054Z,34.8
2019-04-07T01:59:15.467Z,34.8
2019-04-07T02:09:14.470Z,32.1
2019-04-07T02:19:14.020Z,32.3
2019-04-07T02:29:12.898Z,32.2
2019-04-07T02:39:12.960Z,32.2
2019-04-07T02:49:12.287Z,32.1
2019-04-07T02:59:10.537Z,32.2
2019-04-07T03:09:09.968Z,32.3
2019-04-07T03:12:26.108Z,32.3
2019-04-07T03:22:25.667Z,32.3
2019-04-07T03:32:26.352Z,32.3
2019-04-07T03:42:23.176Z,32.3
2019-04-07T03:52:22.406Z,32.3
2019-04-07T04:02:21.701Z,32.2
2019-04-07T04:12:21.250Z,32.2
2019-04-07T04:22:21.020Z,32.2
2019-04-07T04:32:19.232Z,32.2
2019-04-07T04:42:18.619Z,32.2
2019-04-07T04:52:18.152Z,32.2
2019-04-07T05:02:17.199Z,32.2
2019-04-07T05:12:16.356Z,32.2
2019-04-07T05:22:15.544Z,32.2
2019-04-07T05:32:14.753Z,32.2
2019-04-07T05:42:14.644Z,32.1
2019-04-07T05:52:13.897Z,31.8
2019-04-07T06:02:12.381Z,25.7
2019-04-07T06:12:11.982Z,25.4
2019-04-07T06:22:11.088Z,24.4
2019-04-07T06:32:10.333Z,24.6
2019-04-07T06:42:09.232Z,24.4
2019-04-07T06:52:08.442Z,24.6
2019-04-07T07:02:07.653Z,24.7
2019-04-07T07:12:18.260Z,24.8
2019-04-07T07:22:10.102Z,24.9
2019-04-07T07:32:06.320Z,25
2019-04-07T07:42:04.493Z,25.3
2019-04-07T07:52:03.822Z,25.5
2019-04-07T08:02:03.415Z,25.8
2019-04-07T08:12:03.424Z,26.1
2019-04-07T08:22:01.750Z,26.4
2019-04-07T08:32:00.562Z,26.9
2019-04-07T08:42:01.121Z,27.3
2019-04-07T08:51:59.052Z,27.7
2019-04-07T09:01:58.194Z,28.1
2019-04-07T09:11:57.586Z,28.3
2019-04-07T09:21:57.004Z,28.1
2019-04-07T09:31:56.489Z,27.1
2019-04-07T09:41:55.312Z,26.3
2019-04-07T09:51:54.876Z,26.6
2019-04-07T10:01:54.097Z,26.9
2019-04-07T10:11:52.687Z,27.3
2019-04-07T10:21:51.902Z,27.6
2019-04-07T10:31:51.822Z,27.6
2019-04-07T10:41:50.709Z,27.9
2019-04-07T10:51:49.535Z,28.2
2019-04-07T11:01:49.079Z,28.4
2019-04-07T11:11:49.192Z,28.5
2019-04-07T11:21:47.798Z,28.6
2019-04-07T11:31:47.012Z,28.8
2019-04-07T11:41:47.091Z,28.8
2019-04-07T11:51:45.440Z,28.8
2019-04-07T12:01:46.254Z,29
2019-04-07T12:11:43.918Z,29.2
2019-04-07T12:21:43.749Z,29.3
2019-04-07T12:31:42.385Z,29.5
2019-04-07T12:41:41.513Z,29.6
2019-04-07T12:51:40.724Z,29.8
2019-04-07T13:01:43.768Z,29.9
2019-04-07T13:11:42.997Z,30.1
2019-04-07T13:21:39.227Z,30.2
2019-04-07T13:31:38.315Z,30.3
2019-04-07T13:41:43.199Z,30.3
2019-04-07T13:51:36.577Z,30.4
2019-04-07T14:01:35.711Z,30.3
2019-04-07T14:11:35.022Z,30.3
2019-04-07T14:21:33.893Z,30.3
2019-04-07T14:31:33.572Z,30.1
2019-04-07T14:41:32.119Z,30
2019-04-07T14:51:31.766Z,30
2019-04-07T15:01:30.647Z,29.8
2019-04-07T15:11:29.895Z,29.3
2019-04-07T15:21:29.794Z,29.1
2019-04-07T15:31:28.399Z,28.6
2019-04-07T15:41:27.583Z,28.6
2019-04-07T15:51:26.616Z,28.6
2019-04-07T16:01:25.836Z,28.6
2019-04-07T16:11:28.255Z,27.4
2019-04-07T16:21:24.264Z,26.6
2019-04-07T16:31:25.381Z,24.9
2019-04-07T16:41:22.693Z,23.3
2019-04-07T16:51:26.343Z,22.9
2019-04-07T17:01:23.382Z,22.8
2019-04-07T17:11:20.330Z,22.8
2019-04-07T17:21:20.375Z,22.9
2019-04-07T17:31:18.842Z,22.9
2019-04-07T17:41:18.346Z,22.9
2019-04-07T17:51:17.765Z,22.8
2019-04-07T18:01:19.922Z,22.8
2019-04-07T18:11:15.650Z,21.3
2019-04-07T18:21:16.775Z,20.1
2019-04-07T18:31:14.056Z,20.2
2019-04-07T18:41:13.275Z,19.8
2019-04-07T18:51:13.748Z,19.9
2019-04-07T19:01:11.747Z,18.8
2019-04-07T19:11:15.778Z,18.4
2019-04-07T19:21:13.375Z,18.5
2019-04-07T19:31:09.349Z,18.5
2019-04-07T19:41:08.893Z,18.3
2019-04-07T19:51:08.726Z,16.3
2019-04-07T20:01:06.987Z,15.1
2019-04-07T20:11:06.201Z,15.3
2019-04-07T20:21:07.989Z,15.3
2019-04-07T20:31:05.699Z,15.3
2019-04-07T20:41:04.095Z,15.3
2019-04-07T20:51:03.067Z,15.3
2019-04-07T21:01:04.496Z,15.3
2019-04-07T21:07:16.442Z,15.3
2019-04-07T21:17:15.386Z,15.3
2019-04-07T21:27:14.340Z,15.3
2019-04-07T21:37:14.994Z,15.4
2019-04-07T21:47:12.599Z,15.4
2019-04-07T21:57:13.950Z,15.4
2019-04-07T22:07:11.211Z,15.4
2019-04-07T22:17:10.330Z,15.4
2019-04-07T22:27:09.624Z,15.4
2019-04-07T22:37:08.945Z,15.4
2019-04-07T22:47:09.169Z,15.4
2019-04-07T22:57:10.161Z,15.4
2019-04-07T23:05:19.816Z,15.4
2019-04-07T23:15:19.029Z,15.4
2019-04-07T23:25:18.235Z,15.4
2019-04-07T23:35:17.453Z,15.5
2019-04-07T23:45:16.677Z,15.5
2019-04-07T23:55:15.873Z,15.5
